sensor_id;sensor_type;location;lat;lon;timestamp;pressure;altitude;pressure_sealevel;temperature;humidity
47080;BME280;33067;49.296;14.470;2022-08-19T00:00:26;96232.91;;;24.70;40.59
47080;BME280;33067;49.296;14.470;2022-08-19T00:02:52;96212.77;;;24.58;40.30
47080;BME280;33067;49.296;14.470;2022-08-19T00:05:20;96203.01;;;24.74;40.30
47080;BME280;33067;49.296;14.470;2022-08-19T00:07:44;96209.53;;;24.82;40.20
47080;BME280;33067;49.296;14.470;2022-08-19T00:10:10;96211.26;;;24.76;40.15
47080;BME280;33067;49.296;14.470;2022-08-19T00:12:35;96218.57;;;25.00;40.27
47080;BME280;33067;49.296;14.470;2022-08-19T00:15:02;96210.42;;;24.95;40.32
47080;BME280;33067;49.296;14.470;2022-08-19T00:17:28;96209.33;;;24.86;40.65
47080;BME280;33067;49.296;14.470;2022-08-19T00:19:52;96206.38;;;24.90;40.57
47080;BME280;33067;49.296;14.470;2022-08-19T00:22:18;96200.05;;;24.97;40.35
47080;BME280;33067;49.296;14.470;2022-08-19T00:24:44;96205.51;;;24.86;39.76
47080;BME280;33067;49.296;14.470;2022-08-19T00:27:12;96205.81;;;24.67;39.64
47080;BME280;33067;49.296;14.470;2022-08-19T00:29:35;96214.70;;;24.56;39.58
47080;BME280;33067;49.296;14.470;2022-08-19T00:32:01;96231.13;;;24.23;39.89
47080;BME280;33067;49.296;14.470;2022-08-19T00:34:27;96239.45;;;24.57;39.94
47080;BME280;33067;49.296;14.470;2022-08-19T00:36:55;96237.44;;;24.67;39.86
47080;BME280;33067;49.296;14.470;2022-08-19T00:39:18;96241.05;;;24.70;39.85
47080;BME280;33067;49.296;14.470;2022-08-19T00:41:47;96246.22;;;24.68;39.86
47080;BME280;33067;49.296;14.470;2022-08-19T00:44:13;96253.45;;;24.71;39.79
47080;BME280;33067;49.296;14.470;2022-08-19T00:46:38;96265.41;;;24.64;40.06
47080;BME280;33067;49.296;14.470;2022-08-19T00:49:07;96276.47;;;24.70;39.91
47080;BME280;33067;49.296;14.470;2022-08-19T00:51:29;96279.05;;;24.70;39.83
47080;BME280;33067;49.296;14.470;2022-08-19T00:53:54;96285.35;;;24.44;40.02
47080;BME280;33067;49.296;14.470;2022-08-19T00:56:19;96291.55;;;24.25;40.32
47080;BME280;33067;49.296;14.470;2022-08-19T00:58:45;96291.36;;;24.25;40.58
47080;BME280;33067;49.296;14.470;2022-08-19T01:01:11;96296.22;;;23.85;40.80
47080;BME280;33067;49.296;14.470;2022-08-19T01:03:37;96298.60;;;23.92;41.11
47080;BME280;33067;49.296;14.470;2022-08-19T01:06:03;96302.61;;;23.78;41.40
47080;BME280;33067;49.296;14.470;2022-08-19T01:08:28;96299.93;;;24.06;41.40
47080;BME280;33067;49.296;14.470;2022-08-19T01:10:56;96305.64;;;23.65;41.23
47080;BME280;33067;49.296;14.470;2022-08-19T01:13:22;96308.37;;;24.12;41.24
47080;BME280;33067;49.296;14.470;2022-08-19T01:15:48;96300.47;;;24.12;41.25
47080;BME280;33067;49.296;14.470;2022-08-19T01:18:15;96303.23;;;23.65;41.30
47080;BME280;33067;49.296;14.470;2022-08-19T01:20:39;96311.01;;;24.24;41.16
47080;BME280;33067;49.296;14.470;2022-08-19T01:23:03;96308.35;;;24.03;41.09
47080;BME280;33067;49.296;14.470;2022-08-19T01:25:32;96304.15;;;24.02;41.13
47080;BME280;33067;49.296;14.470;2022-08-19T01:27:55;96302.40;;;24.05;40.96
47080;BME280;33067;49.296;14.470;2022-08-19T01:30:23;96308.18;;;24.31;40.98
47080;BME280;33067;49.296;14.470;2022-08-19T01:32:46;96315.45;;;24.08;40.88
47080;BME280;33067;49.296;14.470;2022-08-19T01:35:13;96317.91;;;24.16;40.76
47080;BME280;33067;49.296;14.470;2022-08-19T01:37:43;96310.74;;;23.97;40.67
47080;BME280;33067;49.296;14.470;2022-08-19T01:40:05;96305.52;;;24.04;40.39
47080;BME280;33067;49.296;14.470;2022-08-19T01:42:30;96310.33;;;23.98;40.46
47080;BME280;33067;49.296;14.470;2022-08-19T01:44:56;96313.77;;;23.78;40.82
47080;BME280;33067;49.296;14.470;2022-08-19T01:47:22;96315.54;;;23.81;40.72
47080;BME280;33067;49.296;14.470;2022-08-19T01:49:47;96319.96;;;24.33;40.69
47080;BME280;33067;49.296;14.470;2022-08-19T01:52:14;96322.79;;;24.02;40.72
47080;BME280;33067;49.296;14.470;2022-08-19T01:54:39;96330.35;;;23.91;40.82
47080;BME280;33067;49.296;14.470;2022-08-19T01:57:08;96331.59;;;23.72;41.05
47080;BME280;33067;49.296;14.470;2022-08-19T01:59:32;96332.35;;;23.55;41.35
47080;BME280;33067;49.296;14.470;2022-08-19T02:01:56;96332.45;;;23.78;41.44
47080;BME280;33067;49.296;14.470;2022-08-19T02:04:22;96330.79;;;23.56;41.64
47080;BME280;33067;49.296;14.470;2022-08-19T02:06:48;96334.22;;;23.92;41.59
47080;BME280;33067;49.296;14.470;2022-08-19T02:09:13;96336.87;;;23.75;41.63
47080;BME280;33067;49.296;14.470;2022-08-19T02:12:59;96342.40;;;23.76;41.49
47080;BME280;33067;49.296;14.470;2022-08-19T02:15:25;96342.07;;;23.83;41.36
47080;BME280;33067;49.296;14.470;2022-08-19T02:17:51;96349.92;;;24.05;41.35
47080;BME280;33067;49.296;14.470;2022-08-19T02:20:17;96350.06;;;24.13;41.35
47080;BME280;33067;49.296;14.470;2022-08-19T02:22:43;96340.36;;;24.26;41.28
47080;BME280;33067;49.296;14.470;2022-08-19T02:25:09;96331.11;;;24.19;41.40
47080;BME280;33067;49.296;14.470;2022-08-19T02:27:36;96328.93;;;24.26;41.33
47080;BME280;33067;49.296;14.470;2022-08-19T02:30:00;96328.33;;;23.98;41.55
47080;BME280;33067;49.296;14.470;2022-08-19T02:32:26;96325.62;;;24.33;41.55
47080;BME280;33067;49.296;14.470;2022-08-19T02:34:52;96331.97;;;24.00;41.71
47080;BME280;33067;49.296;14.470;2022-08-19T02:37:18;96333.71;;;24.12;41.63
47080;BME280;33067;49.296;14.470;2022-08-19T02:39:43;96336.34;;;23.98;41.50
47080;BME280;33067;49.296;14.470;2022-08-19T02:42:11;96334.95;;;23.91;41.61
47080;BME280;33067;49.296;14.470;2022-08-19T02:44:35;96326.80;;;23.61;41.69
47080;BME280;33067;49.296;14.470;2022-08-19T02:47:01;96318.51;;;23.83;41.79
47080;BME280;33067;49.296;14.470;2022-08-19T02:49:27;96308.87;;;23.63;41.69
47080;BME280;33067;49.296;14.470;2022-08-19T02:51:53;96305.61;;;23.65;41.63
47080;BME280;33067;49.296;14.470;2022-08-19T02:54:18;96310.32;;;23.69;41.45
47080;BME280;33067;49.296;14.470;2022-08-19T02:56:44;96316.34;;;23.91;41.40
47080;BME280;33067;49.296;14.470;2022-08-19T02:59:10;96320.11;;;23.90;41.44
47080;BME280;33067;49.296;14.470;2022-08-19T03:01:36;96319.05;;;23.47;41.50
47080;BME280;33067;49.296;14.470;2022-08-19T03:04:05;96322.78;;;23.99;41.50
47080;BME280;33067;49.296;14.470;2022-08-19T03:06:28;96328.18;;;23.73;41.28
47080;BME280;33067;49.296;14.470;2022-08-19T03:08:53;96319.01;;;23.52;41.29
47080;BME280;33067;49.296;14.470;2022-08-19T03:11:21;96311.12;;;23.48;41.38
47080;BME280;33067;49.296;14.470;2022-08-19T03:13:45;96303.68;;;23.79;40.95
47080;BME280;33067;49.296;14.470;2022-08-19T03:16:11;96297.11;;;24.00;40.69
47080;BME280;33067;49.296;14.470;2022-08-19T03:18:36;96293.41;;;24.16;40.48
47080;BME280;33067;49.296;14.470;2022-08-19T03:21:03;96289.25;;;24.37;40.18
47080;BME280;33067;49.296;14.470;2022-08-19T03:23:28;96286.32;;;23.92;40.17
47080;BME280;33067;49.296;14.470;2022-08-19T03:25:54;96298.10;;;24.19;39.85
47080;BME280;33067;49.296;14.470;2022-08-19T03:28:20;96305.94;;;24.35;39.85
47080;BME280;33067;49.296;14.470;2022-08-19T03:30:56;96306.78;;;24.28;39.93
47080;BME280;33067;49.296;14.470;2022-08-19T03:33:11;96305.40;;;23.96;40.03
47080;BME280;33067;49.296;14.470;2022-08-19T03:35:36;96292.09;;;24.22;40.09
47080;BME280;33067;49.296;14.470;2022-08-19T03:38:02;96285.79;;;24.00;40.08
47080;BME280;33067;49.296;14.470;2022-08-19T03:40:28;96285.88;;;24.35;39.85
47080;BME280;33067;49.296;14.470;2022-08-19T03:42:54;96286.43;;;24.12;39.77
47080;BME280;33067;49.296;14.470;2022-08-19T03:45:20;96289.15;;;24.09;39.72
47080;BME280;33067;49.296;14.470;2022-08-19T03:47:45;96302.41;;;24.12;40.03
47080;BME280;33067;49.296;14.470;2022-08-19T03:50:11;96309.79;;;23.82;40.04
47080;BME280;33067;49.296;14.470;2022-08-19T03:52:37;96315.95;;;23.63;40.43
47080;BME280;33067;49.296;14.470;2022-08-19T03:55:04;96324.05;;;23.38;40.92
47080;BME280;33067;49.296;14.470;2022-08-19T03:57:28;96333.48;;;23.26;41.04
47080;BME280;33067;49.296;14.470;2022-08-19T03:59:53;96337.20;;;23.41;41.21
47080;BME280;33067;49.296;14.470;2022-08-19T04:02:18;96335.98;;;23.20;41.35
47080;BME280;33067;49.296;14.470;2022-08-19T04:04:43;96342.12;;;23.25;41.35
47080;BME280;33067;49.296;14.470;2022-08-19T04:07:10;96346.67;;;23.58;40.89
47080;BME280;33067;49.296;14.470;2022-08-19T04:09:34;96349.08;;;23.70;40.74
47080;BME280;33067;49.296;14.470;2022-08-19T04:11:59;96352.27;;;23.83;40.59
47080;BME280;33067;49.296;14.470;2022-08-19T04:14:29;96350.41;;;23.84;40.46
47080;BME280;33067;49.296;14.470;2022-08-19T04:16:50;96343.76;;;23.73;40.62
47080;BME280;33067;49.296;14.470;2022-08-19T04:19:17;96337.59;;;23.64;40.76
47080;BME280;33067;49.296;14.470;2022-08-19T04:21:43;96338.50;;;23.53;40.58
47080;BME280;33067;49.296;14.470;2022-08-19T04:24:11;96337.36;;;23.58;40.52
47080;BME280;33067;49.296;14.470;2022-08-19T04:26:34;96335.68;;;23.57;40.19
47080;BME280;33067;49.296;14.470;2022-08-19T04:28:58;96342.09;;;23.75;40.19
47080;BME280;33067;49.296;14.470;2022-08-19T04:31:24;96353.89;;;23.52;39.84
47080;BME280;33067;49.296;14.470;2022-08-19T04:33:47;96360.67;;;23.43;40.72
47080;BME280;33067;49.296;14.470;2022-08-19T04:36:16;96361.80;;;23.57;40.84
47080;BME280;33067;49.296;14.470;2022-08-19T04:38:38;96354.18;;;23.72;40.89
47080;BME280;33067;49.296;14.470;2022-08-19T04:41:03;96358.34;;;23.70;40.73
47080;BME280;33067;49.296;14.470;2022-08-19T04:43:29;96366.47;;;23.90;40.56
47080;BME280;33067;49.296;14.470;2022-08-19T04:45:54;96362.68;;;23.97;40.08
47080;BME280;33067;49.296;14.470;2022-08-19T04:48:19;96374.51;;;24.15;40.29
47080;BME280;33067;49.296;14.470;2022-08-19T04:50:44;96378.80;;;24.15;40.16
47080;BME280;33067;49.296;14.470;2022-08-19T04:53:10;96390.20;;;24.11;40.14
47080;BME280;33067;49.296;14.470;2022-08-19T04:55:38;96408.33;;;24.37;39.89
47080;BME280;33067;49.296;14.470;2022-08-19T04:58:00;96409.44;;;24.60;39.64
47080;BME280;33067;49.296;14.470;2022-08-19T05:00:26;96413.79;;;24.45;39.52
47080;BME280;33067;49.296;14.470;2022-08-19T05:02:51;96414.71;;;24.69;39.67
47080;BME280;33067;49.296;14.470;2022-08-19T05:05:16;96411.64;;;24.89;39.82
47080;BME280;33067;49.296;14.470;2022-08-19T05:07:42;96413.09;;;25.05;40.00
47080;BME280;33067;49.296;14.470;2022-08-19T05:10:08;96420.97;;;24.83;40.53
47080;BME280;33067;49.296;14.470;2022-08-19T05:12:33;96431.71;;;24.93;40.52
47080;BME280;33067;49.296;14.470;2022-08-19T05:14:58;96437.03;;;24.82;40.82
47080;BME280;33067;49.296;14.470;2022-08-19T05:17:23;96439.58;;;24.53;41.22
47080;BME280;33067;49.296;14.470;2022-08-19T05:19:49;96449.18;;;24.34;41.70
47080;BME280;33067;49.296;14.470;2022-08-19T05:22:14;96452.44;;;24.36;41.87
47080;BME280;33067;49.296;14.470;2022-08-19T05:24:41;96451.74;;;24.18;42.41
47080;BME280;33067;49.296;14.470;2022-08-19T05:27:05;96454.69;;;24.12;41.84
47080;BME280;33067;49.296;14.470;2022-08-19T05:29:32;96458.07;;;24.89;41.53
47080;BME280;33067;49.296;14.470;2022-08-19T05:31:56;96453.14;;;24.88;41.72
47080;BME280;33067;49.296;14.470;2022-08-19T05:34:23;96458.87;;;25.16;41.59
47080;BME280;33067;49.296;14.470;2022-08-19T05:36:49;96484.03;;;25.20;41.35
47080;BME280;33067;49.296;14.470;2022-08-19T05:39:15;96492.45;;;25.15;41.15
47080;BME280;33067;49.296;14.470;2022-08-19T05:41:41;96495.57;;;25.07;41.46
47080;BME280;33067;49.296;14.470;2022-08-19T05:44:05;96502.62;;;25.01;41.51
47080;BME280;33067;49.296;14.470;2022-08-19T05:46:29;96514.53;;;25.16;41.55
47080;BME280;33067;49.296;14.470;2022-08-19T05:48:55;96517.47;;;25.17;41.42
47080;BME280;33067;49.296;14.470;2022-08-19T05:51:20;96515.45;;;25.20;41.14
47080;BME280;33067;49.296;14.470;2022-08-19T05:53:46;96511.35;;;25.88;40.99
47080;BME280;33067;49.296;14.470;2022-08-19T05:56:14;96508.94;;;25.64;41.14
47080;BME280;33067;49.296;14.470;2022-08-19T05:58:39;96519.22;;;26.03;40.43
47080;BME280;33067;49.296;14.470;2022-08-19T06:01:08;96517.09;;;25.99;40.22
47080;BME280;33067;49.296;14.470;2022-08-19T06:03:29;96520.62;;;26.08;40.12
47080;BME280;33067;49.296;14.470;2022-08-19T06:05:55;96530.80;;;26.19;39.86
47080;BME280;33067;49.296;14.470;2022-08-19T06:08:21;96534.99;;;26.25;39.35
47080;BME280;33067;49.296;14.470;2022-08-19T06:10:46;96534.47;;;26.68;39.27
47080;BME280;33067;49.296;14.470;2022-08-19T06:13:12;96538.74;;;26.60;39.23
47080;BME280;33067;49.296;14.470;2022-08-19T06:15:38;96533.91;;;26.57;39.89
47080;BME280;33067;49.296;14.470;2022-08-19T06:18:04;96528.34;;;26.43;39.63
47080;BME280;33067;49.296;14.470;2022-08-19T06:20:29;96523.86;;;26.49;39.65
47080;BME280;33067;49.296;14.470;2022-08-19T06:22:54;96516.39;;;26.76;39.29
47080;BME280;33067;49.296;14.470;2022-08-19T06:25:20;96509.52;;;26.99;38.91
47080;BME280;33067;49.296;14.470;2022-08-19T06:27:46;96506.98;;;27.07;38.58
47080;BME280;33067;49.296;14.470;2022-08-19T06:30:12;96498.26;;;27.15;39.00
47080;BME280;33067;49.296;14.470;2022-08-19T06:32:38;96487.19;;;27.00;38.93
47080;BME280;33067;49.296;14.470;2022-08-19T06:35:02;96480.26;;;26.56;39.48
47080;BME280;33067;49.296;14.470;2022-08-19T06:37:27;96476.10;;;26.84;39.17
47080;BME280;33067;49.296;14.470;2022-08-19T06:39:53;96473.25;;;27.01;39.05
47080;BME280;33067;49.296;14.470;2022-08-19T06:42:19;96461.59;;;27.26;38.63
47080;BME280;33067;49.296;14.470;2022-08-19T06:44:46;96466.90;;;26.86;38.94
47080;BME280;33067;49.296;14.470;2022-08-19T06:47:11;96477.03;;;26.59;39.12
47080;BME280;33067;49.296;14.470;2022-08-19T06:49:35;96479.45;;;26.48;39.48
47080;BME280;33067;49.296;14.470;2022-08-19T06:52:01;96486.06;;;26.48;39.24
47080;BME280;33067;49.296;14.470;2022-08-19T06:54:27;96487.34;;;26.33;39.55
47080;BME280;33067;49.296;14.470;2022-08-19T06:56:51;96481.51;;;26.42;39.50
47080;BME280;33067;49.296;14.470;2022-08-19T06:59:21;96470.12;;;26.48;39.47
47080;BME280;33067;49.296;14.470;2022-08-19T07:01:44;96462.38;;;25.59;40.87
47080;BME280;33067;49.296;14.470;2022-08-19T07:04:08;96451.97;;;25.98;40.62
47080;BME280;33067;49.296;14.470;2022-08-19T07:06:32;96435.13;;;25.83;40.91
47080;BME280;33067;49.296;14.470;2022-08-19T07:08:58;96416.05;;;25.59;41.60
47080;BME280;33067;49.296;14.470;2022-08-19T07:11:23;96391.12;;;25.54;41.71
47080;BME280;33067;49.296;14.470;2022-08-19T07:13:49;96381.12;;;25.14;42.12
47080;BME280;33067;49.296;14.470;2022-08-19T07:16:17;96397.81;;;25.20;41.64
47080;BME280;33067;49.296;14.470;2022-08-19T07:18:41;96402.83;;;25.83;40.97
47080;BME280;33067;49.296;14.470;2022-08-19T07:21:09;96404.36;;;25.53;40.91
47080;BME280;33067;49.296;14.470;2022-08-19T07:23:32;96409.40;;;25.85;40.90
47080;BME280;33067;49.296;14.470;2022-08-19T07:25:58;96412.99;;;26.10;40.68
47080;BME280;33067;49.296;14.470;2022-08-19T07:28:23;96425.02;;;26.12;40.02
47080;BME280;33067;49.296;14.470;2022-08-19T07:30:49;96441.67;;;26.70;39.53
47080;BME280;33067;49.296;14.470;2022-08-19T07:33:14;96447.75;;;26.62;39.12
47080;BME280;33067;49.296;14.470;2022-08-19T07:35:39;96441.53;;;26.68;38.92
47080;BME280;33067;49.296;14.470;2022-08-19T07:38:05;96432.67;;;26.73;38.82
47080;BME280;33067;49.296;14.470;2022-08-19T07:40:31;96436.14;;;27.00;38.55
47080;BME280;33067;49.296;14.470;2022-08-19T07:42:56;96453.57;;;26.90;38.20
47080;BME280;33067;49.296;14.470;2022-08-19T07:45:22;96465.81;;;26.98;38.33
47080;BME280;33067;49.296;14.470;2022-08-19T07:47:47;96472.33;;;26.94;38.30
47080;BME280;33067;49.296;14.470;2022-08-19T07:50:12;96479.65;;;27.02;38.19
47080;BME280;33067;49.296;14.470;2022-08-19T07:52:39;96486.85;;;27.00;38.29
47080;BME280;33067;49.296;14.470;2022-08-19T07:55:05;96498.35;;;27.18;38.21
47080;BME280;33067;49.296;14.470;2022-08-19T07:57:29;96507.74;;;27.27;38.29
47080;BME280;33067;49.296;14.470;2022-08-19T07:59:55;96512.52;;;26.95;38.72
47080;BME280;33067;49.296;14.470;2022-08-19T08:02:20;96509.52;;;27.12;38.55
47080;BME280;33067;49.296;14.470;2022-08-19T08:04:46;96507.78;;;27.16;38.18
47080;BME280;33067;49.296;14.470;2022-08-19T08:07:12;96509.38;;;27.36;37.76
47080;BME280;33067;49.296;14.470;2022-08-19T08:09:40;96513.05;;;27.43;37.83
47080;BME280;33067;49.296;14.470;2022-08-19T08:12:06;96514.79;;;27.38;37.91
47080;BME280;33067;49.296;14.470;2022-08-19T08:14:33;96515.95;;;27.22;37.52
47080;BME280;33067;49.296;14.470;2022-08-19T08:16:55;96515.94;;;27.24;37.88
47080;BME280;33067;49.296;14.470;2022-08-19T08:19:23;96515.31;;;27.57;37.96
47080;BME280;33067;49.296;14.470;2022-08-19T08:21:45;96516.09;;;27.75;37.59
47080;BME280;33067;49.296;14.470;2022-08-19T08:24:11;96508.34;;;27.97;37.38
47080;BME280;33067;49.296;14.470;2022-08-19T08:26:36;96504.80;;;27.95;37.14
47080;BME280;33067;49.296;14.470;2022-08-19T08:29:02;96502.08;;;27.99;37.36
47080;BME280;33067;49.296;14.470;2022-08-19T08:31:27;96491.13;;;28.18;37.36
47080;BME280;33067;49.296;14.470;2022-08-19T08:33:53;96480.27;;;27.97;37.36
47080;BME280;33067;49.296;14.470;2022-08-19T08:36:18;96477.83;;;27.94;37.43
47080;BME280;33067;49.296;14.470;2022-08-19T08:38:44;96473.46;;;28.18;37.06
47080;BME280;33067;49.296;14.470;2022-08-19T08:41:18;96468.14;;;27.93;37.30
47080;BME280;33067;49.296;14.470;2022-08-19T08:43:37;96471.23;;;28.46;36.96
47080;BME280;33067;49.296;14.470;2022-08-19T08:46:05;96471.72;;;27.94;37.21
47080;BME280;33067;49.296;14.470;2022-08-19T08:48:37;96468.93;;;28.01;37.39
47080;BME280;33067;49.296;14.470;2022-08-19T08:50:56;96466.50;;;28.04;37.03
47080;BME280;33067;49.296;14.470;2022-08-19T08:53:18;96465.65;;;28.24;37.03
47080;BME280;33067;49.296;14.470;2022-08-19T08:55:43;96465.59;;;28.50;36.66
47080;BME280;33067;49.296;14.470;2022-08-19T08:58:13;96464.76;;;28.58;36.18
47080;BME280;33067;49.296;14.470;2022-08-19T09:00:36;96473.84;;;28.62;36.42
47080;BME280;33067;49.296;14.470;2022-08-19T09:03:00;96478.73;;;28.45;36.55
47080;BME280;33067;49.296;14.470;2022-08-19T09:05:32;96483.92;;;28.30;36.05
47080;BME280;33067;49.296;14.470;2022-08-19T09:07:56;96484.47;;;28.91;35.77
47080;BME280;33067;49.296;14.470;2022-08-19T09:10:21;96484.04;;;29.15;34.94
47080;BME280;33067;49.296;14.470;2022-08-19T09:12:47;96483.18;;;29.24;35.07
47080;BME280;33067;49.296;14.470;2022-08-19T09:15:09;96479.72;;;28.70;35.35
47080;BME280;33067;49.296;14.470;2022-08-19T09:17:32;96476.93;;;28.64;35.23
47080;BME280;33067;49.296;14.470;2022-08-19T09:19:59;96473.20;;;29.12;34.95
47080;BME280;33067;49.296;14.470;2022-08-19T09:22:24;96478.35;;;28.78;34.95
47080;BME280;33067;49.296;14.470;2022-08-19T09:24:49;96477.70;;;28.09;35.43
47080;BME280;33067;49.296;14.470;2022-08-19T09:27:13;96478.39;;;28.46;35.58
47080;BME280;33067;49.296;14.470;2022-08-19T09:29:38;96477.38;;;28.86;35.11
47080;BME280;33067;49.296;14.470;2022-08-19T09:32:04;96477.37;;;29.10;34.88
47080;BME280;33067;49.296;14.470;2022-08-19T09:34:29;96481.91;;;27.83;35.79
47080;BME280;33067;49.296;14.470;2022-08-19T09:36:54;96485.34;;;28.55;35.50
47080;BME280;33067;49.296;14.470;2022-08-19T09:39:20;96478.21;;;28.94;34.82
47080;BME280;33067;49.296;14.470;2022-08-19T09:41:46;96476.95;;;28.93;34.65
47080;BME280;33067;49.296;14.470;2022-08-19T09:44:13;96477.22;;;28.94;34.89
47080;BME280;33067;49.296;14.470;2022-08-19T09:46:36;96482.14;;;29.18;34.77
47080;BME280;33067;49.296;14.470;2022-08-19T09:49:01;96481.61;;;29.22;34.14
47080;BME280;33067;49.296;14.470;2022-08-19T09:51:28;96479.32;;;29.39;34.21
47080;BME280;33067;49.296;14.470;2022-08-19T09:53:52;96474.30;;;29.11;34.03
47080;BME280;33067;49.296;14.470;2022-08-19T09:56:19;96473.29;;;29.22;33.67
47080;BME280;33067;49.296;14.470;2022-08-19T09:58:44;96472.29;;;29.06;34.00
47080;BME280;33067;49.296;14.470;2022-08-19T10:01:14;96470.98;;;29.18;34.01
47080;BME280;33067;49.296;14.470;2022-08-19T10:03:36;96470.06;;;29.23;33.86
47080;BME280;33067;49.296;14.470;2022-08-19T10:06:03;96479.41;;;29.34;34.45
47080;BME280;33067;49.296;14.470;2022-08-19T10:08:27;96481.66;;;28.98;34.33
47080;BME280;33067;49.296;14.470;2022-08-19T10:10:51;96481.83;;;29.50;33.86
47080;BME280;33067;49.296;14.470;2022-08-19T10:13:19;96483.31;;;29.96;33.63
47080;BME280;33067;49.296;14.470;2022-08-19T10:15:41;96484.82;;;30.05;33.19
47080;BME280;33067;49.296;14.470;2022-08-19T10:18:07;96484.27;;;30.12;33.04
47080;BME280;33067;49.296;14.470;2022-08-19T10:20:33;96485.95;;;30.11;33.01
47080;BME280;33067;49.296;14.470;2022-08-19T10:22:58;96484.14;;;30.23;33.07
47080;BME280;33067;49.296;14.470;2022-08-19T10:25:23;96485.21;;;29.56;33.41
47080;BME280;33067;49.296;14.470;2022-08-19T10:27:49;96486.38;;;29.73;33.25
47080;BME280;33067;49.296;14.470;2022-08-19T10:30:14;96486.38;;;30.20;32.66
47080;BME280;33067;49.296;14.470;2022-08-19T10:32:39;96486.57;;;30.25;32.27
47080;BME280;33067;49.296;14.470;2022-08-19T10:35:06;96489.30;;;30.31;31.70
47080;BME280;33067;49.296;14.470;2022-08-19T10:37:30;96489.45;;;30.32;31.69
47080;BME280;33067;49.296;14.470;2022-08-19T10:39:56;96489.67;;;30.82;31.09
47080;BME280;33067;49.296;14.470;2022-08-19T10:42:22;96482.11;;;30.92;31.06
47080;BME280;33067;49.296;14.470;2022-08-19T10:44:47;96477.04;;;31.42;30.71
47080;BME280;33067;49.296;14.470;2022-08-19T10:47:12;96472.80;;;31.00;30.99
47080;BME280;33067;49.296;14.470;2022-08-19T10:49:38;96475.02;;;30.81;31.26
47080;BME280;33067;49.296;14.470;2022-08-19T10:52:04;96471.47;;;31.46;30.95
47080;BME280;33067;49.296;14.470;2022-08-19T10:54:29;96465.40;;;31.35;30.75
47080;BME280;33067;49.296;14.470;2022-08-19T10:56:55;96462.21;;;29.80;31.61
47080;BME280;33067;49.296;14.470;2022-08-19T10:59:22;96456.10;;;30.91;30.94
47080;BME280;33067;49.296;14.470;2022-08-19T11:01:46;96450.96;;;31.00;30.71
47080;BME280;33067;49.296;14.470;2022-08-19T11:04:11;96450.43;;;29.88;31.45
47080;BME280;33067;49.296;14.470;2022-08-19T11:06:37;96447.43;;;29.10;31.00
47080;BME280;33067;49.296;14.470;2022-08-19T11:09:02;96442.76;;;31.08;29.93
47080;BME280;33067;49.296;14.470;2022-08-19T11:11:27;96445.04;;;30.94;30.26
47080;BME280;33067;49.296;14.470;2022-08-19T11:13:52;96444.97;;;30.84;30.47
47080;BME280;33067;49.296;14.470;2022-08-19T11:16:21;96443.37;;;29.84;31.45
47080;BME280;33067;49.296;14.470;2022-08-19T11:18:46;96444.38;;;30.56;30.92
47080;BME280;33067;49.296;14.470;2022-08-19T11:21:13;96442.29;;;30.91;30.50
47080;BME280;33067;49.296;14.470;2022-08-19T11:23:35;96436.15;;;31.01;30.53
47080;BME280;33067;49.296;14.470;2022-08-19T11:26:00;96426.61;;;31.66;29.93
47080;BME280;33067;49.296;14.470;2022-08-19T11:28:26;96425.80;;;31.31;29.65
47080;BME280;33067;49.296;14.470;2022-08-19T11:30:51;96427.70;;;30.93;30.00
47080;BME280;33067;49.296;14.470;2022-08-19T11:33:17;96429.14;;;30.21;30.61
47080;BME280;33067;49.296;14.470;2022-08-19T11:35:42;96429.66;;;30.58;30.69
47080;BME280;33067;49.296;14.470;2022-08-19T11:38:07;96422.68;;;30.98;30.05
47080;BME280;33067;49.296;14.470;2022-08-19T11:40:33;96419.75;;;30.93;29.83
47080;BME280;33067;49.296;14.470;2022-08-19T11:42:58;96415.80;;;30.40;30.49
47080;BME280;33067;49.296;14.470;2022-08-19T11:45:25;96415.77;;;30.87;29.70
47080;BME280;33067;49.296;14.470;2022-08-19T11:47:49;96410.32;;;31.21;29.68
47080;BME280;33067;49.296;14.470;2022-08-19T11:50:16;96415.42;;;31.48;29.71
47080;BME280;33067;49.296;14.470;2022-08-19T11:52:41;96409.77;;;31.45;29.20
47080;BME280;33067;49.296;14.470;2022-08-19T11:55:07;96406.53;;;29.98;30.60
47080;BME280;33067;49.296;14.470;2022-08-19T11:57:32;96408.31;;;30.61;30.51
47080;BME280;33067;49.296;14.470;2022-08-19T11:59:58;96400.70;;;30.21;30.22
47080;BME280;33067;49.296;14.470;2022-08-19T12:02:23;96389.78;;;31.64;29.36
47080;BME280;33067;49.296;14.470;2022-08-19T12:04:49;96383.04;;;30.94;29.55
47080;BME280;33067;49.296;14.470;2022-08-19T12:07:15;96384.02;;;30.63;29.54
47080;BME280;33067;49.296;14.470;2022-08-19T12:09:40;96373.48;;;30.94;29.31
47080;BME280;33067;49.296;14.470;2022-08-19T12:12:06;96371.24;;;30.56;28.77
47080;BME280;33067;49.296;14.470;2022-08-19T12:14:32;96376.13;;;31.09;28.27
47080;BME280;33067;49.296;14.470;2022-08-19T12:16:56;96386.61;;;31.52;28.62
47080;BME280;33067;49.296;14.470;2022-08-19T12:19:23;96391.14;;;31.12;28.37
47080;BME280;33067;49.296;14.470;2022-08-19T12:21:48;96400.54;;;31.43;27.96
47080;BME280;33067;49.296;14.470;2022-08-19T12:24:14;96401.75;;;32.21;27.82
47080;BME280;33067;49.296;14.470;2022-08-19T12:26:39;96399.92;;;31.60;27.94
47080;BME280;33067;49.296;14.470;2022-08-19T12:29:04;96391.40;;;31.68;27.94
47080;BME280;33067;49.296;14.470;2022-08-19T12:31:30;96388.18;;;31.89;27.78
47080;BME280;33067;49.296;14.470;2022-08-19T12:33:55;96386.88;;;31.88;27.81
47080;BME280;33067;49.296;14.470;2022-08-19T12:36:21;96385.76;;;31.51;28.03
47080;BME280;33067;49.296;14.470;2022-08-19T12:38:46;96387.72;;;32.07;27.87
47080;BME280;33067;49.296;14.470;2022-08-19T12:41:14;96384.74;;;32.06;27.94